sensor_id;sensor_type;location;lat;lon;timestamp;temperature;humidity
30381;DHT22;17169;50.966;11.038;2022-12-07T00:02:40;3.20;99.90
30381;DHT22;17169;50.966;11.038;2022-12-07T00:05:43;3.20;99.90
30381;DHT22;17169;50.966;11.038;2022-12-07T00:08:45;3.10;99.90
30381;DHT22;17169;50.966;11.038;2022-12-07T00:11:50;3.10;99.90
30381;DHT22;17169;50.966;11.038;2022-12-07T00:14:53;3.10;99.90
30381;DHT22;17169;50.966;11.038;2022-12-07T00:17:55;3.00;99.90
30381;DHT22;17169;50.966;11.038;2022-12-07T00:21:01;3.00;99.90
30381;DHT22;17169;50.966;11.038;2022-12-07T00:24:05;2.90;99.90
30381;DHT22;17169;50.966;11.038;2022-12-07T00:27:09;2.90;99.90
30381;DHT22;17169;50.966;11.038;2022-12-07T00:30:11;2.80;99.90
30381;DHT22;17169;50.966;11.038;2022-12-07T00:33:14;2.80;99.90
30381;DHT22;17169;50.966;11.038;2022-12-07T00:36:18;2.70;99.90
30381;DHT22;17169;50.966;11.038;2022-12-07T00:39:20;2.70;99.90
30381;DHT22;17169;50.966;11.038;2022-12-07T00:42:24;2.70;99.90
30381;DHT22;17169;50.966;11.038;2022-12-07T00:45:26;2.70;99.90
30381;DHT22;17169;50.966;11.038;2022-12-07T00:48:29;2.70;99.90
30381;DHT22;17169;50.966;11.038;2022-12-07T00:51:32;2.70;99.90
30381;DHT22;17169;50.966;11.038;2022-12-07T00:54:34;2.70;99.90
30381;DHT22;17169;50.966;11.038;2022-12-07T00:57:38;2.80;99.90
30381;DHT22;17169;50.966;11.038;2022-12-07T01:00:42;2.80;99.90
30381;DHT22;17169;50.966;11.038;2022-12-07T01:03:44;2.90;99.90
30381;DHT22;17169;50.966;11.038;2022-12-07T01:06:47;2.90;99.90
30381;DHT22;17169;50.966;11.038;2022-12-07T01:09:49;2.90;99.90
30381;DHT22;17169;50.966;11.038;2022-12-07T01:12:53;2.90;99.90
30381;DHT22;17169;50.966;11.038;2022-12-07T01:15:58;2.90;99.90
30381;DHT22;17169;50.966;11.038;2022-12-07T01:19:01;2.90;99.90
30381;DHT22;17169;50.966;11.038;2022-12-07T01:22:05;2.80;99.90
30381;DHT22;17169;50.966;11.038;2022-12-07T01:25:09;2.90;99.90
30381;DHT22;17169;50.966;11.038;2022-12-07T01:28:12;2.80;99.90
30381;DHT22;17169;50.966;11.038;2022-12-07T01:31:17;2.80;99.90
30381;DHT22;17169;50.966;11.038;2022-12-07T01:34:20;2.90;99.90
30381;DHT22;17169;50.966;11.038;2022-12-07T01:37:22;2.90;99.90
30381;DHT22;17169;50.966;11.038;2022-12-07T01:40:24;2.80;99.90
30381;DHT22;17169;50.966;11.038;2022-12-07T01:43:30;2.90;99.90
30381;DHT22;17169;50.966;11.038;2022-12-07T01:46:33;2.90;99.90
30381;DHT22;17169;50.966;11.038;2022-12-07T01:49:37;2.90;99.90
30381;DHT22;17169;50.966;11.038;2022-12-07T01:52:42;2.90;99.90
30381;DHT22;17169;50.966;11.038;2022-12-07T01:55:47;2.90;99.90
30381;DHT22;17169;50.966;11.038;2022-12-07T01:58:54;3.00;99.90
30381;DHT22;17169;50.966;11.038;2022-12-07T02:01:58;3.00;99.90
30381;DHT22;17169;50.966;11.038;2022-12-07T02:05:03;3.00;99.90
30381;DHT22;17169;50.966;11.038;2022-12-07T02:08:05;3.00;99.90
30381;DHT22;17169;50.966;11.038;2022-12-07T02:11:08;3.00;99.90
30381;DHT22;17169;50.966;11.038;2022-12-07T02:14:12;3.00;99.90
30381;DHT22;17169;50.966;11.038;2022-12-07T02:17:21;3.00;99.90
30381;DHT22;17169;50.966;11.038;2022-12-07T02:20:29;3.00;99.90
30381;DHT22;17169;50.966;11.038;2022-12-07T02:23:45;3.00;99.90
30381;DHT22;17169;50.966;11.038;2022-12-07T02:30:42;3.10;99.90
30381;DHT22;17169;50.966;11.038;2022-12-07T02:33:50;3.10;99.90
30381;DHT22;17169;50.966;11.038;2022-12-07T02:36:59;3.20;99.90
30381;DHT22;17169;50.966;11.038;2022-12-07T02:40:07;3.20;99.90
30381;DHT22;17169;50.966;11.038;2022-12-07T02:43:14;3.30;99.90
30381;DHT22;17169;50.966;11.038;2022-12-07T02:46:22;3.30;99.90
30381;DHT22;17169;50.966;11.038;2022-12-07T02:49:27;3.30;99.90
30381;DHT22;17169;50.966;11.038;2022-12-07T02:52:30;3.30;99.90
30381;DHT22;17169;50.966;11.038;2022-12-07T02:55:36;3.40;99.90
30381;DHT22;17169;50.966;11.038;2022-12-07T02:58:49;3.40;99.90
30381;DHT22;17169;50.966;11.038;2022-12-07T03:02:03;3.30;99.90
30381;DHT22;17169;50.966;11.038;2022-12-07T03:05:20;3.40;99.90
30381;DHT22;17169;50.966;11.038;2022-12-07T03:08:33;3.30;99.90
30381;DHT22;17169;50.966;11.038;2022-12-07T03:11:44;3.30;99.90
30381;DHT22;17169;50.966;11.038;2022-12-07T03:14:55;3.30;99.90
30381;DHT22;17169;50.966;11.038;2022-12-07T03:18:02;3.30;99.90
30381;DHT22;17169;50.966;11.038;2022-12-07T03:21:11;3.40;99.90
30381;DHT22;17169;50.966;11.038;2022-12-07T03:24:18;3.40;99.90
30381;DHT22;17169;50.966;11.038;2022-12-07T03:27:23;3.40;99.90
30381;DHT22;17169;50.966;11.038;2022-12-07T03:30:28;3.50;99.90
30381;DHT22;17169;50.966;11.038;2022-12-07T03:33:35;3.50;99.90
30381;DHT22;17169;50.966;11.038;2022-12-07T03:36:42;3.50;99.90
30381;DHT22;17169;50.966;11.038;2022-12-07T03:39:56;3.50;99.90
30381;DHT22;17169;50.966;11.038;2022-12-07T03:43:01;3.50;99.90
30381;DHT22;17169;50.966;11.038;2022-12-07T03:46:14;3.50;99.90
30381;DHT22;17169;50.966;11.038;2022-12-07T03:49:21;3.60;99.90
30381;DHT22;17169;50.966;11.038;2022-12-07T03:52:26;3.50;99.90
30381;DHT22;17169;50.966;11.038;2022-12-07T03:55:32;3.50;99.90
30381;DHT22;17169;50.966;11.038;2022-12-07T03:58:37;3.50;99.90
30381;DHT22;17169;50.966;11.038;2022-12-07T04:01:42;3.50;99.90
30381;DHT22;17169;50.966;11.038;2022-12-07T04:04:45;3.50;99.90
30381;DHT22;17169;50.966;11.038;2022-12-07T04:07:48;3.40;99.90
30381;DHT22;17169;50.966;11.038;2022-12-07T04:10:50;3.50;99.90
30381;DHT22;17169;50.966;11.038;2022-12-07T04:13:53;3.50;99.90
30381;DHT22;17169;50.966;11.038;2022-12-07T04:17:13;3.40;99.90
30381;DHT22;17169;50.966;11.038;2022-12-07T04:20:17;3.50;99.90
30381;DHT22;17169;50.966;11.038;2022-12-07T04:23:19;3.50;99.90
30381;DHT22;17169;50.966;11.038;2022-12-07T04:26:21;3.50;99.90
30381;DHT22;17169;50.966;11.038;2022-12-07T04:29:24;3.50;99.90
30381;DHT22;17169;50.966;11.038;2022-12-07T04:32:26;3.60;99.90
30381;DHT22;17169;50.966;11.038;2022-12-07T04:35:30;3.50;99.90
30381;DHT22;17169;50.966;11.038;2022-12-07T04:38:33;3.60;99.90
30381;DHT22;17169;50.966;11.038;2022-12-07T04:41:35;3.60;99.90
30381;DHT22;17169;50.966;11.038;2022-12-07T04:44:37;3.60;99.90
30381;DHT22;17169;50.966;11.038;2022-12-07T04:47:40;3.60;99.90
30381;DHT22;17169;50.966;11.038;2022-12-07T04:50:44;3.70;99.90
30381;DHT22;17169;50.966;11.038;2022-12-07T04:53:46;3.70;99.90
30381;DHT22;17169;50.966;11.038;2022-12-07T04:56:49;3.70;99.90
30381;DHT22;17169;50.966;11.038;2022-12-07T04:59:51;3.80;99.90
30381;DHT22;17169;50.966;11.038;2022-12-07T05:02:53;3.80;99.90
30381;DHT22;17169;50.966;11.038;2022-12-07T05:05:57;3.70;99.90
30381;DHT22;17169;50.966;11.038;2022-12-07T05:08:59;3.80;99.90
30381;DHT22;17169;50.966;11.038;2022-12-07T05:12:02;3.80;99.90
30381;DHT22;17169;50.966;11.038;2022-12-07T05:15:05;3.80;99.90
30381;DHT22;17169;50.966;11.038;2022-12-07T05:18:07;3.80;99.90
30381;DHT22;17169;50.966;11.038;2022-12-07T05:21:11;3.80;99.90
30381;DHT22;17169;50.966;11.038;2022-12-07T05:24:15;3.80;99.90
30381;DHT22;17169;50.966;11.038;2022-12-07T05:27:17;3.80;99.90
30381;DHT22;17169;50.966;11.038;2022-12-07T05:30:20;3.80;99.90
30381;DHT22;17169;50.966;11.038;2022-12-07T05:33:22;3.80;99.90
30381;DHT22;17169;50.966;11.038;2022-12-07T05:36:26;3.90;99.90
30381;DHT22;17169;50.966;11.038;2022-12-07T05:39:29;3.90;99.90
30381;DHT22;17169;50.966;11.038;2022-12-07T05:42:31;3.90;99.90
30381;DHT22;17169;50.966;11.038;2022-12-07T05:45:34;3.90;99.90
30381;DHT22;17169;50.966;11.038;2022-12-07T05:48:36;3.90;99.90
30381;DHT22;17169;50.966;11.038;2022-12-07T05:51:41;4.00;99.90
30381;DHT22;17169;50.966;11.038;2022-12-07T05:54:43;4.00;99.90
30381;DHT22;17169;50.966;11.038;2022-12-07T05:57:46;4.00;99.90
30381;DHT22;17169;50.966;11.038;2022-12-07T06:01:02;4.00;99.90
30381;DHT22;17169;50.966;11.038;2022-12-07T06:04:04;4.00;99.90
30381;DHT22;17169;50.966;11.038;2022-12-07T06:07:08;4.00;99.90
30381;DHT22;17169;50.966;11.038;2022-12-07T06:10:11;4.00;99.90
30381;DHT22;17169;50.966;11.038;2022-12-07T06:13:13;4.00;99.90
30381;DHT22;17169;50.966;11.038;2022-12-07T06:16:14;3.90;99.90
30381;DHT22;17169;50.966;11.038;2022-12-07T06:19:17;3.90;99.90
30381;DHT22;17169;50.966;11.038;2022-12-07T06:22:20;3.90;99.90
30381;DHT22;17169;50.966;11.038;2022-12-07T06:25:23;3.90;99.90
30381;DHT22;17169;50.966;11.038;2022-12-07T06:28:25;3.80;99.90
30381;DHT22;17169;50.966;11.038;2022-12-07T06:31:28;3.80;99.90
30381;DHT22;17169;50.966;11.038;2022-12-07T06:34:30;3.70;99.90
30381;DHT22;17169;50.966;11.038;2022-12-07T06:37:34;3.60;99.90
30381;DHT22;17169;50.966;11.038;2022-12-07T06:40:36;3.60;99.90
30381;DHT22;17169;50.966;11.038;2022-12-07T06:43:38;3.60;99.90
30381;DHT22;17169;50.966;11.038;2022-12-07T06:46:41;3.60;99.90
30381;DHT22;17169;50.966;11.038;2022-12-07T06:49:43;3.50;99.90
30381;DHT22;17169;50.966;11.038;2022-12-07T06:52:47;3.60;99.90
30381;DHT22;17169;50.966;11.038;2022-12-07T06:55:49;3.60;99.90
30381;DHT22;17169;50.966;11.038;2022-12-07T06:58:52;3.60;99.90
30381;DHT22;17169;50.966;11.038;2022-12-07T07:01:54;3.70;99.90
30381;DHT22;17169;50.966;11.038;2022-12-07T07:04:56;3.70;99.90
30381;DHT22;17169;50.966;11.038;2022-12-07T07:08:01;3.70;99.90
30381;DHT22;17169;50.966;11.038;2022-12-07T07:11:04;3.80;99.90
30381;DHT22;17169;50.966;11.038;2022-12-07T07:14:06;3.80;99.90
30381;DHT22;17169;50.966;11.038;2022-12-07T07:17:09;3.80;99.90
30381;DHT22;17169;50.966;11.038;2022-12-07T07:20:12;3.70;99.90
30381;DHT22;17169;50.966;11.038;2022-12-07T07:23:16;3.70;99.90
30381;DHT22;17169;50.966;11.038;2022-12-07T07:26:18;3.70;99.90
30381;DHT22;17169;50.966;11.038;2022-12-07T07:29:21;3.70;99.90
30381;DHT22;17169;50.966;11.038;2022-12-07T07:32:23;3.70;99.90
30381;DHT22;17169;50.966;11.038;2022-12-07T07:35:25;3.70;99.90
30381;DHT22;17169;50.966;11.038;2022-12-07T07:38:29;3.70;99.90
30381;DHT22;17169;50.966;11.038;2022-12-07T07:41:31;3.70;99.90
30381;DHT22;17169;50.966;11.038;2022-12-07T07:44:34;3.70;99.90
30381;DHT22;17169;50.966;11.038;2022-12-07T07:47:36;3.70;99.90
30381;DHT22;17169;50.966;11.038;2022-12-07T07:50:39;3.80;99.90
30381;DHT22;17169;50.966;11.038;2022-12-07T07:53:42;3.80;99.90
30381;DHT22;17169;50.966;11.038;2022-12-07T07:56:45;3.80;99.90
30381;DHT22;17169;50.966;11.038;2022-12-07T07:59:47;3.90;99.90
30381;DHT22;17169;50.966;11.038;2022-12-07T08:02:49;3.90;99.90
30381;DHT22;17169;50.966;11.038;2022-12-07T08:05:52;3.90;99.90
30381;DHT22;17169;50.966;11.038;2022-12-07T08:08:55;3.90;99.90
30381;DHT22;17169;50.966;11.038;2022-12-07T08:11:59;3.90;99.90
30381;DHT22;17169;50.966;11.038;2022-12-07T08:15:01;3.90;99.90
30381;DHT22;17169;50.966;11.038;2022-12-07T08:18:04;3.90;99.90
30381;DHT22;17169;50.966;11.038;2022-12-07T08:21:07;3.90;99.90
30381;DHT22;17169;50.966;11.038;2022-12-07T08:24:12;3.90;99.90
30381;DHT22;17169;50.966;11.038;2022-12-07T08:27:15;3.90;99.90
30381;DHT22;17169;50.966;11.038;2022-12-07T08:30:17;3.90;99.90
30381;DHT22;17169;50.966;11.038;2022-12-07T08:33:20;3.90;99.90
30381;DHT22;17169;50.966;11.038;2022-12-07T08:36:24;3.90;99.90
30381;DHT22;17169;50.966;11.038;2022-12-07T08:39:27;4.00;99.90
30381;DHT22;17169;50.966;11.038;2022-12-07T08:42:30;4.00;99.90
30381;DHT22;17169;50.966;11.038;2022-12-07T08:45:40;4.10;99.90
30381;DHT22;17169;50.966;11.038;2022-12-07T08:48:45;4.10;99.90
30381;DHT22;17169;50.966;11.038;2022-12-07T08:51:49;4.20;99.90
30381;DHT22;17169;50.966;11.038;2022-12-07T08:54:53;4.20;99.90
30381;DHT22;17169;50.966;11.038;2022-12-07T08:57:57;4.30;99.90
30381;DHT22;17169;50.966;11.038;2022-12-07T09:00:59;4.30;99.90
30381;DHT22;17169;50.966;11.038;2022-12-07T09:04:01;4.30;99.90
30381;DHT22;17169;50.966;11.038;2022-12-07T09:07:04;4.40;99.90
30381;DHT22;17169;50.966;11.038;2022-12-07T09:10:09;4.50;99.90
30381;DHT22;17169;50.966;11.038;2022-12-07T09:13:12;4.50;99.90
30381;DHT22;17169;50.966;11.038;2022-12-07T09:16:14;4.60;99.90
30381;DHT22;17169;50.966;11.038;2022-12-07T09:19:16;4.70;99.90
30381;DHT22;17169;50.966;11.038;2022-12-07T09:22:19;4.70;99.90
30381;DHT22;17169;50.966;11.038;2022-12-07T09:25:22;4.70;99.90
30381;DHT22;17169;50.966;11.038;2022-12-07T09:28:25;4.70;99.90
30381;DHT22;17169;50.966;11.038;2022-12-07T09:31:27;4.80;99.90
30381;DHT22;17169;50.966;11.038;2022-12-07T09:34:30;4.80;99.90
30381;DHT22;17169;50.966;11.038;2022-12-07T09:37:33;4.80;99.90
30381;DHT22;17169;50.966;11.038;2022-12-07T09:40:38;4.80;99.90
30381;DHT22;17169;50.966;11.038;2022-12-07T09:43:41;4.90;99.90
30381;DHT22;17169;50.966;11.038;2022-12-07T09:46:45;4.80;99.90
30381;DHT22;17169;50.966;11.038;2022-12-07T09:49:47;4.80;99.90
30381;DHT22;17169;50.966;11.038;2022-12-07T09:52:50;4.80;99.90
30381;DHT22;17169;50.966;11.038;2022-12-07T09:55:55;4.80;99.90
30381;DHT22;17169;50.966;11.038;2022-12-07T09:59:00;4.70;99.90
30381;DHT22;17169;50.966;11.038;2022-12-07T10:02:24;4.70;99.90
30381;DHT22;17169;50.966;11.038;2022-12-07T10:05:30;4.70;99.90
30381;DHT22;17169;50.966;11.038;2022-12-07T10:08:33;4.80;99.90
30381;DHT22;17169;50.966;11.038;2022-12-07T10:11:58;4.90;99.90
30381;DHT22;17169;50.966;11.038;2022-12-07T10:15:04;5.00;99.90
30381;DHT22;17169;50.966;11.038;2022-12-07T10:18:17;5.10;99.90
30381;DHT22;17169;50.966;11.038;2022-12-07T10:21:22;5.20;99.90
30381;DHT22;17169;50.966;11.038;2022-12-07T10:24:25;5.30;99.90
30381;DHT22;17169;50.966;11.038;2022-12-07T10:27:31;5.30;99.90
30381;DHT22;17169;50.966;11.038;2022-12-07T10:30:49;5.40;99.90
30381;DHT22;17169;50.966;11.038;2022-12-07T10:33:54;5.40;99.90
30381;DHT22;17169;50.966;11.038;2022-12-07T10:37:16;5.30;99.90
30381;DHT22;17169;50.966;11.038;2022-12-07T10:40:28;5.20;99.90
30381;DHT22;17169;50.966;11.038;2022-12-07T10:43:32;5.20;99.90
30381;DHT22;17169;50.966;11.038;2022-12-07T10:50:29;5.20;99.90
30381;DHT22;17169;50.966;11.038;2022-12-07T10:53:47;5.10;99.90
30381;DHT22;17169;50.966;11.038;2022-12-07T10:56:53;5.10;99.90
30381;DHT22;17169;50.966;11.038;2022-12-07T11:00:12;5.10;99.90
30381;DHT22;17169;50.966;11.038;2022-12-07T11:03:26;5.20;99.90
30381;DHT22;17169;50.966;11.038;2022-12-07T11:06:33;5.20;99.90
30381;DHT22;17169;50.966;11.038;2022-12-07T11:09:50;5.40;99.90
30381;DHT22;17169;50.966;11.038;2022-12-07T11:13:03;5.50;99.90
30381;DHT22;17169;50.966;11.038;2022-12-07T11:16:25;5.40;99.90
30381;DHT22;17169;50.966;11.038;2022-12-07T11:19:54;5.40;99.90
30381;DHT22;17169;50.966;11.038;2022-12-07T11:23:09;5.50;99.90
30381;DHT22;17169;50.966;11.038;2022-12-07T11:26:23;5.40;99.90
30381;DHT22;17169;50.966;11.038;2022-12-07T11:29:50;5.50;99.90
30381;DHT22;17169;50.966;11.038;2022-12-07T11:33:03;5.60;99.90
30381;DHT22;17169;50.966;11.038;2022-12-07T11:36:16;5.60;99.90
30381;DHT22;17169;50.966;11.038;2022-12-07T11:39:25;5.70;99.90
30381;DHT22;17169;50.966;11.038;2022-12-07T11:42:33;5.70;99.90
30381;DHT22;17169;50.966;11.038;2022-12-07T11:45:41;5.70;99.90
30381;DHT22;17169;50.966;11.038;2022-12-07T11:48:49;5.70;99.90
30381;DHT22;17169;50.966;11.038;2022-12-07T11:51:56;5.80;99.90
30381;DHT22;17169;50.966;11.038;2022-12-07T11:55:01;5.80;99.90
30381;DHT22;17169;50.966;11.038;2022-12-07T11:58:20;5.90;99.90
30381;DHT22;17169;50.966;11.038;2022-12-07T12:01:39;5.90;99.90
30381;DHT22;17169;50.966;11.038;2022-12-07T12:04:52;5.90;99.90
30381;DHT22;17169;50.966;11.038;2022-12-07T12:08:03;5.90;99.90
30381;DHT22;17169;50.966;11.038;2022-12-07T12:11:19;5.80;99.90
30381;DHT22;17169;50.966;11.038;2022-12-07T12:14:38;5.70;99.90
30381;DHT22;17169;50.966;11.038;2022-12-07T12:21:27;5.70;99.90
30381;DHT22;17169;50.966;11.038;2022-12-07T12:24:32;5.70;99.90
30381;DHT22;17169;50.966;11.038;2022-12-07T12:27:39;5.70;99.90
30381;DHT22;17169;50.966;11.038;2022-12-07T12:30:41;5.70;99.90
30381;DHT22;17169;50.966;11.038;2022-12-07T12:33:46;5.70;99.90
30381;DHT22;17169;50.966;11.038;2022-12-07T12:36:50;5.70;99.90
30381;DHT22;17169;50.966;11.038;2022-12-07T12:43:59;5.60;99.90
30381;DHT22;17169;50.966;11.038;2022-12-07T12:47:02;5.60;99.90
30381;DHT22;17169;50.966;11.038;2022-12-07T12:50:30;5.60;99.90
30381;DHT22;17169;50.966;11.038;2022-12-07T12:53:34;5.50;99.90
30381;DHT22;17169;50.966;11.038;2022-12-07T12:56:41;5.30;99.90
30381;DHT22;17169;50.966;11.038;2022-12-07T12:59:56;5.30;99.90
30381;DHT22;17169;50.966;11.038;2022-12-07T13:02:59;5.40;99.90
30381;DHT22;17169;50.966;11.038;2022-12-07T13:06:32;5.40;99.90
30381;DHT22;17169;50.966;11.038;2022-12-07T13:09:43;5.40;99.90
30381;DHT22;17169;50.966;11.038;2022-12-07T13:12:55;5.30;99.90
30381;DHT22;17169;50.966;11.038;2022-12-07T13:19:58;5.20;99.90
30381;DHT22;17169;50.966;11.038;2022-12-07T13:23:04;5.20;99.90
30381;DHT22;17169;50.966;11.038;2022-12-07T13:26:14;5.30;99.90
30381;DHT22;17169;50.966;11.038;2022-12-07T13:29:18;5.30;99.90
30381;DHT22;17169;50.966;11.038;2022-12-07T13:32:24;5.30;99.90
30381;DHT22;17169;50.966;11.038;2022-12-07T13:35:37;5.30;99.90
30381;DHT22;17169;50.966;11.038;2022-12-07T13:38:49;5.40;99.90
30381;DHT22;17169;50.966;11.038;2022-12-07T13:41:53;5.30;99.90
30381;DHT22;17169;50.966;11.038;2022-12-07T13:44:59;5.30;99.90
30381;DHT22;17169;50.966;11.038;2022-12-07T13:48:03;5.30;99.90
30381;DHT22;17169;50.966;11.038;2022-12-07T13:51:12;5.30;99.90
30381;DHT22;17169;50.966;11.038;2022-12-07T13:54:19;5.20;99.90
30381;DHT22;17169;50.966;11.038;2022-12-07T13:57:24;5.20;99.90
30381;DHT22;17169;50.966;11.038;2022-12-07T14:00:28;5.20;99.90
30381;DHT22;17169;50.966;11.038;2022-12-07T14:03:33;5.20;99.90
30381;DHT22;17169;50.966;11.038;2022-12-07T14:06:47;5.10;99.90
30381;DHT22;17169;50.966;11.038;2022-12-07T14:09:55;5.20;99.90
30381;DHT22;17169;50.966;11.038;2022-12-07T14:12:59;5.20;99.90
30381;DHT22;17169;50.966;11.038;2022-12-07T14:16:04;5.20;99.90
30381;DHT22;17169;50.966;11.038;2022-12-07T14:19:43;5.20;99.90
30381;DHT22;17169;50.966;11.038;2022-12-07T14:22:55;5.20;99.90
30381;DHT22;17169;50.966;11.038;2022-12-07T14:26:06;5.20;99.90
30381;DHT22;17169;50.966;11.038;2022-12-07T14:29:32;5.20;99.90
30381;DHT22;17169;50.966;11.038;2022-12-07T14:32:36;5.10;99.90
30381;DHT22;17169;50.966;11.038;2022-12-07T14:35:39;5.10;99.90
30381;DHT22;17169;50.966;11.038;2022-12-07T14:38:41;5.10;99.90
30381;DHT22;17169;50.966;11.038;2022-12-07T14:41:44;5.00;99.90
30381;DHT22;17169;50.966;11.038;2022-12-07T14:44:57;4.90;99.90
30381;DHT22;17169;50.966;11.038;2022-12-07T14:47:59;4.90;99.90
30381;DHT22;17169;50.966;11.038;2022-12-07T14:51:02;4.80;99.90
30381;DHT22;17169;50.966;11.038;2022-12-07T14:54:06;4.70;99.90
30381;DHT22;17169;50.966;11.038;2022-12-07T14:57:09;4.70;99.90
30381;DHT22;17169;50.966;11.038;2022-12-07T15:00:17;4.60;99.90
30381;DHT22;17169;50.966;11.038;2022-12-07T15:03:20;4.60;99.90
30381;DHT22;17169;50.966;11.038;2022-12-07T15:06:23;4.50;99.90
30381;DHT22;17169;50.966;11.038;2022-12-07T15:09:25;4.50;99.90
30381;DHT22;17169;50.966;11.038;2022-12-07T15:12:28;4.60;99.90
30381;DHT22;17169;50.966;11.038;2022-12-07T15:15:31;4.50;99.90
30381;DHT22;17169;50.966;11.038;2022-12-07T15:18:34;4.50;99.90
30381;DHT22;17169;50.966;11.038;2022-12-07T15:21:36;4.50;99.90
30381;DHT22;17169;50.966;11.038;2022-12-07T15:24:38;4.50;99.90
30381;DHT22;17169;50.966;11.038;2022-12-07T15:27:41;4.50;99.90
30381;DHT22;17169;50.966;11.038;2022-12-07T15:30:45;4.50;99.90
30381;DHT22;17169;50.966;11.038;2022-12-07T15:33:47;4.50;99.90
30381;DHT22;17169;50.966;11.038;2022-12-07T15:36:50;4.50;99.90
30381;DHT22;17169;50.966;11.038;2022-12-07T15:39:52;4.50;99.90
30381;DHT22;17169;50.966;11.038;2022-12-07T15:42:54;4.50;99.90
30381;DHT22;17169;50.966;11.038;2022-12-07T15:45:58;4.50;99.90
30381;DHT22;17169;50.966;11.038;2022-12-07T15:49:00;4.50;99.90
30381;DHT22;17169;50.966;11.038;2022-12-07T15:52:03;4.40;99.90
30381;DHT22;17169;50.966;11.038;2022-12-07T15:55:06;4.40;99.90
30381;DHT22;17169;50.966;11.038;2022-12-07T15:58:08;4.30;99.90
30381;DHT22;17169;50.966;11.038;2022-12-07T16:01:13;4.30;99.90
30381;DHT22;17169;50.966;11.038;2022-12-07T16:04:16;4.30;99.90
30381;DHT22;17169;50.966;11.038;2022-12-07T16:07:18;4.30;99.90
30381;DHT22;17169;50.966;11.038;2022-12-07T16:10:20;4.30;99.90
30381;DHT22;17169;50.966;11.038;2022-12-07T16:13:23;4.30;99.90
30381;DHT22;17169;50.966;11.038;2022-12-07T16:16:27;4.30;99.90
30381;DHT22;17169;50.966;11.038;2022-12-07T16:19:29;4.20;99.90
30381;DHT22;17169;50.966;11.038;2022-12-07T16:22:32;4.30;99.90
30381;DHT22;17169;50.966;11.038;2022-12-07T16:25:34;4.30;99.90
30381;DHT22;17169;50.966;11.038;2022-12-07T16:28:37;4.30;99.90
30381;DHT22;17169;50.966;11.038;2022-12-07T16:31:41;4.20;99.90
30381;DHT22;17169;50.966;11.038;2022-12-07T16:34:43;4.20;99.90
30381;DHT22;17169;50.966;11.038;2022-12-07T16:37:45;4.20;99.90
30381;DHT22;17169;50.966;11.038;2022-12-07T16:40:48;4.20;99.90
30381;DHT22;17169;50.966;11.038;2022-12-07T16:43:50;4.20;99.90
30381;DHT22;17169;50.966;11.038;2022-12-07T16:46:54;4.20;99.90
30381;DHT22;17169;50.966;11.038;2022-12-07T16:49:56;4.10;99.90
30381;DHT22;17169;50.966;11.038;2022-12-07T16:52:58;4.10;99.90
30381;DHT22;17169;50.966;11.038;2022-12-07T16:56:01;4.10;99.90
30381;DHT22;17169;50.966;11.038;2022-12-07T16:59:03;4.00;99.90
30381;DHT22;17169;50.966;11.038;2022-12-07T17:02:08;4.00;99.90
30381;DHT22;17169;50.966;11.038;2022-12-07T17:05:11;4.00;99.90
30381;DHT22;17169;50.966;11.038;2022-12-07T17:08:14;4.00;99.90
30381;DHT22;17169;50.966;11.038;2022-12-07T17:11:17;4.00;99.90
30381;DHT22;17169;50.966;11.038;2022-12-07T17:14:20;4.00;99.90
30381;DHT22;17169;50.966;11.038;2022-12-07T17:17:41;4.00;99.90
30381;DHT22;17169;50.966;11.038;2022-12-07T17:20:44;4.00;99.90
30381;DHT22;17169;50.966;11.038;2022-12-07T17:23:46;4.00;99.90
30381;DHT22;17169;50.966;11.038;2022-12-07T17:26:49;4.00;99.90
30381;DHT22;17169;50.966;11.038;2022-12-07T17:29:51;4.00;99.90
30381;DHT22;17169;50.966;11.038;2022-12-07T17:32:55;4.00;99.90
30381;DHT22;17169;50.966;11.038;2022-12-07T17:35:57;4.00;99.90
30381;DHT22;17169;50.966;11.038;2022-12-07T17:38:59;4.00;99.90
30381;DHT22;17169;50.966;11.038;2022-12-07T17:42:03;3.90;99.90
30381;DHT22;17169;50.966;11.038;2022-12-07T17:45:23;3.90;99.90
30381;DHT22;17169;50.966;11.038;2022-12-07T17:48:27;3.90;99.90
30381;DHT22;17169;50.966;11.038;2022-12-07T17:51:29;3.90;99.90
30381;DHT22;17169;50.966;11.038;2022-12-07T17:54:49;3.90;99.90
30381;DHT22;17169;50.966;11.038;2022-12-07T17:57:52;3.90;99.90
30381;DHT22;17169;50.966;11.038;2022-12-07T18:00:54;3.80;99.90
30381;DHT22;17169;50.966;11.038;2022-12-07T18:03:58;3.80;99.90
30381;DHT22;17169;50.966;11.038;2022-12-07T18:07:00;3.80;99.90
30381;DHT22;17169;50.966;11.038;2022-12-07T18:10:06;3.90;99.90
30381;DHT22;17169;50.966;11.038;2022-12-07T18:13:09;3.90;99.90
30381;DHT22;17169;50.966;11.038;2022-12-07T18:16:30;3.80;99.90
30381;DHT22;17169;50.966;11.038;2022-12-07T18:19:34;3.80;99.90
30381;DHT22;17169;50.966;11.038;2022-12-07T18:22:37;3.80;99.90
30381;DHT22;17169;50.966;11.038;2022-12-07T18:25:39;3.90;99.90
30381;DHT22;17169;50.966;11.038;2022-12-07T18:28:44;3.90;99.90
30381;DHT22;17169;50.966;11.038;2022-12-07T18:31:46;3.90;99.90
30381;DHT22;17169;50.966;11.038;2022-12-07T18:34:50;3.90;99.90
30381;DHT22;17169;50.966;11.038;2022-12-07T18:37:54;3.90;99.90
30381;DHT22;17169;50.966;11.038;2022-12-07T18:40:56;3.90;99.90
30381;DHT22;17169;50.966;11.038;2022-12-07T18:43:59;3.90;99.90
30381;DHT22;17169;50.966;11.038;2022-12-07T18:47:01;3.90;99.90
30381;DHT22;17169;50.966;11.038;2022-12-07T18:50:06;3.90;99.90
30381;DHT22;17169;50.966;11.038;2022-12-07T18:53:09;3.90;99.90
30381;DHT22;17169;50.966;11.038;2022-12-07T18:56:12;3.90;99.90
30381;DHT22;17169;50.966;11.038;2022-12-07T18:59:15;4.00;99.90
30381;DHT22;17169;50.966;11.038;2022-12-07T19:02:35;4.00;99.90
30381;DHT22;17169;50.966;11.038;2022-12-07T19:05:39;3.90;99.90
30381;DHT22;17169;50.966;11.038;2022-12-07T19:08:41;4.00;99.90
30381;DHT22;17169;50.966;11.038;2022-12-07T19:11:43;4.00;99.90
30381;DHT22;17169;50.966;11.038;2022-12-07T19:14:52;4.00;99.90
30381;DHT22;17169;50.966;11.038;2022-12-07T19:17:54;4.00;99.90
30381;DHT22;17169;50.966;11.038;2022-12-07T19:21:01;4.00;99.90
30381;DHT22;17169;50.966;11.038;2022-12-07T19:24:05;4.00;99.90
30381;DHT22;17169;50.966;11.038;2022-12-07T19:27:08;4.00;99.90
30381;DHT22;17169;50.966;11.038;2022-12-07T19:30:11;4.00;99.90
30381;DHT22;17169;50.966;11.038;2022-12-07T19:33:13;4.00;99.90
30381;DHT22;17169;50.966;11.038;2022-12-07T19:36:17;4.00;99.90
30381;DHT22;17169;50.966;11.038;2022-12-07T19:39:20;4.10;99.90
30381;DHT22;17169;50.966;11.038;2022-12-07T19:42:22;4.00;99.90
30381;DHT22;17169;50.966;11.038;2022-12-07T19:45:24;4.10;99.90
30381;DHT22;17169;50.966;11.038;2022-12-07T19:48:29;4.10;99.90
30381;DHT22;17169;50.966;11.038;2022-12-07T19:51:33;4.10;99.90